Time;durP1;ratioP1;P1;durP2;ratioP2;P2;SDS_P1;SDS_P2;PMS_P1;PMS_P2;Temp;Humidity;BMP_temperature;BMP_pressure;BME280_temperature;BME280_humidity;BME280_pressure;Samples;Min_cycle;Max_cycle;Signal;HPM_P1;HPM_P2
2023/06/24 00:00:56;;;;;;;;;;;;;;;16.98;100.00;99805.78;5011989;28;939;-55
2023/06/24 00:03:23;;;;;;;;;;;;;;;16.95;100.00;99809.47;5012147;28;855;-55
2023/06/24 00:05:50;;;;;;;;;;;;;;;16.88;100.00;99806.91;5012084;28;776;-54
2023/06/24 00:08:23;;;;;;;;;;;;;;;16.78;100.00;99807.97;5012026;28;799;-54
2023/06/24 00:10:50;;;;;;;;;;;;;;;16.65;100.00;99808.75;5011810;28;913;-54
2023/06/24 00:13:17;;;;;;;;;;;;;;;16.63;100.00;99805.63;5011647;28;1985;-54
2023/06/24 00:15:44;;;;;;;;;;;;;;;16.61;100.00;99796.13;5011828;28;839;-55
2023/06/24 00:18:10;;;;;;;;;;;;;;;16.53;100.00;99798.34;5011800;28;799;-55
2023/06/24 00:20:37;;;;;;;;;;;;;;;16.47;100.00;99798.13;5011818;28;869;-55
2023/06/24 00:23:04;;;;;;;;;;;;;;;16.50;100.00;99796.44;5011762;28;846;-55
2023/06/24 00:25:31;;;;;;;;;;;;;;;16.59;100.00;99790.22;5011776;28;846;-55
2023/06/24 00:27:57;;;;;;;;;;;;;;;16.71;100.00;99781.06;5011669;28;845;-55
2023/06/24 00:30:26;;;;;;;;;;;;;;;16.81;100.00;99785.56;5011765;28;838;-54
2023/06/24 00:32:53;;;;;;;;;;;;;;;16.88;100.00;99782.56;5011634;28;1906;-54
2023/06/24 00:35:19;;;;;;;;;;;;;;;16.89;100.00;99781.31;5011701;28;846;-53
2023/06/24 00:37:46;;;;;;;;;;;;;;;16.89;100.00;99772.16;5011665;28;846;-55
2023/06/24 00:40:16;;;;;;;;;;;;;;;16.88;100.00;99759.47;5011520;28;966;-55
2023/06/24 00:42:46;;;;;;;;;;;;;;;16.84;100.00;99765.13;5011467;28;993;-55
2023/06/24 00:45:13;;;;;;;;;;;;;;;16.84;100.00;99758.78;5011954;28;838;-55
2023/06/24 00:47:40;;;;;;;;;;;;;;;16.78;100.00;99764.09;5012092;28;845;-56
2023/06/24 00:50:07;;;;;;;;;;;;;;;16.83;100.00;99760.78;5011935;28;815;-54
2023/06/24 00:52:36;;;;;;;;;;;;;;;16.83;100.00;99757.97;5012100;28;1933;-55
2023/06/24 00:55:04;;;;;;;;;;;;;;;16.78;100.00;99764.09;5011612;28;896;-55
2023/06/24 00:57:31;;;;;;;;;;;;;;;16.69;100.00;99756.41;5011517;28;859;-55
2023/06/24 00:59:59;;;;;;;;;;;;;;;16.65;100.00;99757.75;5011382;28;1031;-54
2023/06/24 01:02:27;;;;;;;;;;;;;;;16.62;100.00;99761.41;5011368;28;839;-54
2023/06/24 01:04:54;;;;;;;;;;;;;;;16.59;100.00;99760.28;5011431;28;877;-54
2023/06/24 01:07:21;;;;;;;;;;;;;;;16.65;100.00;99755.72;5011447;28;803;-54
2023/06/24 01:09:48;;;;;;;;;;;;;;;16.76;100.00;99749.03;5011367;28;819;-54
2023/06/24 01:12:14;;;;;;;;;;;;;;;16.83;100.00;99748.84;5011150;28;1940;-55
2023/06/24 01:14:43;;;;;;;;;;;;;;;16.79;100.00;99756.50;5011114;28;1347;-55
2023/06/24 01:17:14;;;;;;;;;;;;;;;16.67;100.00;99755.28;5011352;28;854;-54
2023/06/24 01:19:44;;;;;;;;;;;;;;;16.55;100.00;99756.81;5011632;28;894;-55
2023/06/24 01:22:13;;;;;;;;;;;;;;;16.45;100.00;99755.13;5011435;28;873;-55
2023/06/24 01:24:59;;;;;;;;;;;;;;;16.36;100.00;99747.41;5011337;28;870;-55
2023/06/24 01:27:37;;;;;;;;;;;;;;;16.30;100.00;99751.97;5011141;28;870;-53
2023/06/24 01:30:19;;;;;;;;;;;;;;;16.19;100.00;99752.28;5011136;28;875;-55
2023/06/24 01:32:50;;;;;;;;;;;;;;;16.01;100.00;99763.97;5012505;28;1914;-55
2023/06/24 01:35:20;;;;;;;;;;;;;;;15.90;100.00;99760.69;5014979;28;849;-55
2023/06/24 01:37:51;;;;;;;;;;;;;;;15.84;100.00;99756.88;5015042;28;881;-55
2023/06/24 01:40:22;;;;;;;;;;;;;;;15.74;100.00;99763.50;4996979;28;1173;-55
2023/06/24 01:42:49;;;;;;;;;;;;;;;15.61;100.00;99766.22;5014587;28;853;-54
2023/06/24 01:45:20;;;;;;;;;;;;;;;15.51;100.00;99766.06;5014452;28;928;-55
2023/06/24 01:47:48;;;;;;;;;;;;;;;15.44;100.00;99762.66;5014461;28;822;-54
2023/06/24 01:50:18;;;;;;;;;;;;;;;15.42;100.00;99753.94;5014634;28;834;-54
2023/06/24 01:52:45;;;;;;;;;;;;;;;15.37;100.00;99754.50;5014283;28;1946;-54
2023/06/24 01:55:16;;;;;;;;;;;;;;;15.27;100.00;99750.75;4996640;28;882;-54
2023/06/24 01:57:44;;;;;;;;;;;;;;;15.24;100.00;99746.06;5014253;28;827;-54
2023/06/24 02:00:10;;;;;;;;;;;;;;;15.17;100.00;99749.81;5014253;28;838;-50
2023/06/24 02:02:38;;;;;;;;;;;;;;;15.25;100.00;99751.16;4996554;28;1230;-53
2023/06/24 02:05:05;;;;;;;;;;;;;;;15.36;100.00;99750.13;5014148;28;838;-53
2023/06/24 02:07:33;;;;;;;;;;;;;;;15.38;100.00;99748.47;5014137;28;834;-53
2023/06/24 02:10:01;;;;;;;;;;;;;;;15.36;100.00;99753.69;5013979;28;871;-53
2023/06/24 02:12:29;;;;;;;;;;;;;;;15.24;100.00;99751.63;4996175;28;1954;-53
2023/06/24 02:14:56;;;;;;;;;;;;;;;15.06;100.00;99750.06;5013994;28;873;-51
2023/06/24 02:17:24;;;;;;;;;;;;;;;14.86;100.00;99750.13;5013895;28;865;-52
2023/06/24 02:19:52;;;;;;;;;;;;;;;14.69;100.00;99752.09;5013757;28;851;-54
2023/06/24 02:22:20;;;;;;;;;;;;;;;14.52;100.00;99750.47;5013832;28;923;-54
2023/06/24 02:24:49;;;;;;;;;;;;;;;14.38;100.00;99751.56;5013644;28;897;-55
2023/06/24 02:27:16;;;;;;;;;;;;;;;14.34;100.00;99750.06;5013730;28;874;-55
2023/06/24 02:29:43;;;;;;;;;;;;;;;14.25;100.00;99758.97;5013663;28;807;-51
2023/06/24 02:32:10;;;;;;;;;;;;;;;14.22;100.00;99757.84;5013435;28;1910;-54
2023/06/24 02:34:37;;;;;;;;;;;;;;;14.23;100.00;99765.00;5013617;28;819;-52
2023/06/24 02:37:04;;;;;;;;;;;;;;;14.28;100.00;99769.25;5013530;28;800;-54
2023/06/24 02:39:31;;;;;;;;;;;;;;;14.36;100.00;99767.09;5013539;28;787;-53
2023/06/24 02:41:57;;;;;;;;;;;;;;;14.43;100.00;99778.88;5013411;28;858;-52
2023/06/24 02:44:24;;;;;;;;;;;;;;;14.48;100.00;99778.34;5013584;28;894;-53
2023/06/24 02:46:53;;;;;;;;;;;;;;;14.58;100.00;99770.25;5013334;28;870;-53
2023/06/24 02:49:20;;;;;;;;;;;;;;;14.65;100.00;99765.28;5013373;28;815;-53
2023/06/24 02:51:48;;;;;;;;;;;;;;;14.75;100.00;99782.97;5013119;28;795;-54
2023/06/24 02:54:16;;;;;;;;;;;;;;;14.83;100.00;99778.03;5013065;28;1958;-54
2023/06/24 02:56:44;;;;;;;;;;;;;;;14.87;100.00;99778.72;5013145;28;838;-53
2023/06/24 02:59:10;;;;;;;;;;;;;;;14.81;100.00;99781.25;5013043;28;828;-52
2023/06/24 03:01:45;;;;;;;;;;;;;;;14.80;100.00;99776.13;5013108;28;810;-51
2023/06/24 03:04:12;;;;;;;;;;;;;;;14.80;100.00;99785.25;5013173;28;822;-53
2023/06/24 03:06:39;;;;;;;;;;;;;;;14.82;100.00;99790.38;5013172;28;882;-54
2023/06/24 03:09:07;;;;;;;;;;;;;;;14.80;100.00;99793.59;5013121;28;799;-54
2023/06/24 03:11:42;;;;;;;;;;;;;;;14.79;100.00;99785.69;5013074;28;904;-54
2023/06/24 03:14:09;;;;;;;;;;;;;;;14.89;100.00;99793.00;5012556;28;1890;-53
2023/06/24 03:16:38;;;;;;;;;;;;;;;15.02;100.00;99801.44;5012909;28;874;-54
2023/06/24 03:19:05;;;;;;;;;;;;;;;15.15;100.00;99801.53;5012742;28;842;-54
2023/06/24 03:21:32;;;;;;;;;;;;;;;15.26;100.00;99807.66;5012729;28;846;-54
2023/06/24 03:23:59;;;;;;;;;;;;;;;15.44;100.00;99810.00;5012787;28;818;-53
2023/06/24 03:26:46;;;;;;;;;;;;;;;15.60;100.00;99807.22;5012666;28;862;-53
2023/06/24 03:29:13;;;;;;;;;;;;;;;15.76;100.00;99803.63;5012532;28;933;-54
2023/06/24 03:31:43;;;;;;;;;;;;;;;15.90;100.00;99806.06;5012498;28;886;-53
2023/06/24 03:34:10;;;;;;;;;;;;;;;16.10;100.00;99814.28;5012399;28;1938;-54
2023/06/24 03:36:38;;;;;;;;;;;;;;;16.28;100.00;99819.38;5012501;28;802;-54
2023/06/24 03:39:05;;;;;;;;;;;;;;;16.35;100.00;99823.97;5012355;28;973;-55
2023/06/24 03:41:32;;;;;;;;;;;;;;;16.40;100.00;99814.25;5012254;28;846;-54
2023/06/24 03:43:59;;;;;;;;;;;;;;;16.45;100.00;99814.50;5012404;28;807;-53
2023/06/24 03:46:25;;;;;;;;;;;;;;;16.51;100.00;99826.69;4994631;28;1551;-53
2023/06/24 03:48:52;;;;;;;;;;;;;;;16.60;100.00;99817.66;5012275;28;885;-53
2023/06/24 03:51:19;;;;;;;;;;;;;;;16.70;100.00;99819.34;5012065;28;897;-54
2023/06/24 03:53:45;;;;;;;;;;;;;;;16.81;100.00;99815.47;5011931;28;1949;-54
2023/06/24 03:56:12;;;;;;;;;;;;;;;16.92;100.00;99813.94;5011730;28;925;-55
2023/06/24 03:58:39;;;;;;;;;;;;;;;17.08;100.00;99815.84;5012141;28;874;-55
2023/06/24 04:01:06;;;;;;;;;;;;;;;17.28;100.00;99815.63;5012126;28;815;-54
2023/06/24 04:03:33;;;;;;;;;;;;;;;17.46;100.00;99820.63;5012106;28;791;-53
2023/06/24 04:06:01;;;;;;;;;;;;;;;17.73;100.00;99817.31;5012040;28;874;-53
2023/06/24 04:08:31;;;;;;;;;;;;;;;18.24;100.00;99815.59;5011987;28;831;-53
2023/06/24 04:11:03;;;;;;;;;;;;;;;18.59;100.00;99815.53;5011896;28;902;-53
2023/06/24 04:13:29;;;;;;;;;;;;;;;18.67;100.00;99816.78;5011906;28;1983;-54
2023/06/24 04:15:56;;;;;;;;;;;;;;;18.82;100.00;99808.66;5012248;28;803;-54
2023/06/24 04:18:22;;;;;;;;;;;;;;;19.04;100.00;99809.38;5011990;28;815;-52
2023/06/24 04:20:50;;;;;;;;;;;;;;;19.21;100.00;99807.13;5012221;28;782;-55
2023/06/24 04:23:17;;;;;;;;;;;;;;;19.36;100.00;99816.50;4994252;28;1210;-54
2023/06/24 04:25:43;;;;;;;;;;;;;;;19.49;100.00;99818.41;5011930;28;1245;-54
2023/06/24 04:28:10;;;;;;;;;;;;;;;19.56;100.00;99823.72;5011902;28;819;-50
2023/06/24 04:30:38;;;;;;;;;;;;;;;19.67;100.00;99823.25;5011999;28;866;-54
2023/06/24 04:33:05;;;;;;;;;;;;;;;19.79;100.00;99822.38;5011972;28;1890;-52
2023/06/24 04:35:31;;;;;;;;;;;;;;;19.90;100.00;99828.31;5011868;28;846;-50
2023/06/24 04:37:58;;;;;;;;;;;;;;;20.05;100.00;99827.69;5012480;28;830;-53
2023/06/24 04:40:24;;;;;;;;;;;;;;;20.21;100.00;99835.03;5011515;28;871;-54
2023/06/24 04:42:51;;;;;;;;;;;;;;;20.38;100.00;99834.22;5012015;28;895;-54
2023/06/24 04:45:18;;;;;;;;;;;;;;;20.62;100.00;99835.63;5011616;28;806;-54
2023/06/24 04:47:45;;;;;;;;;;;;;;;20.92;100.00;99840.22;5011469;28;883;-53
2023/06/24 04:50:12;;;;;;;;;;;;;;;21.22;100.00;99834.78;5011460;28;827;-52
2023/06/24 04:52:39;;;;;;;;;;;;;;;21.43;100.00;99835.81;5011380;28;1886;-54
2023/06/24 04:55:05;;;;;;;;;;;;;;;21.53;100.00;99833.72;5011541;28;826;-50
2023/06/24 04:57:34;;;;;;;;;;;;;;;21.61;100.00;99835.72;5011518;28;795;-50
2023/06/24 05:00:00;;;;;;;;;;;;;;;21.76;100.00;99843.44;5011820;28;799;-51
2023/06/24 05:02:26;;;;;;;;;;;;;;;21.85;100.00;99842.59;5011483;28;803;-53
2023/06/24 05:04:53;;;;;;;;;;;;;;;21.92;100.00;99851.44;5011748;28;829;-54
2023/06/24 05:07:19;;;;;;;;;;;;;;;22.03;100.00;99850.91;5012302;28;819;-54
2023/06/24 05:09:51;;;;;;;;;;;;;;;22.16;100.00;99845.78;5015201;28;819;-54
2023/06/24 05:12:18;;;;;;;;;;;;;;;22.25;100.00;99844.97;4997410;28;1985;-53
2023/06/24 05:14:49;;;;;;;;;;;;;;;22.37;100.00;99849.53;5015431;28;802;-53
2023/06/24 05:17:16;;;;;;;;;;;;;;;22.57;100.00;99848.09;5015420;28;878;-53
2023/06/24 05:19:42;;;;;;;;;;;;;;;22.63;100.00;99843.34;5015059;28;882;-54
2023/06/24 05:22:09;;;;;;;;;;;;;;;22.77;100.00;99845.41;5014858;28;877;-54
2023/06/24 05:24:37;;;;;;;;;;;;;;;22.87;100.00;99846.06;5014940;28;905;-54
2023/06/24 05:27:05;;;;;;;;;;;;;;;23.00;100.00;99855.03;5014844;28;867;-53
2023/06/24 05:29:32;;;;;;;;;;;;;;;23.26;100.00;99845.16;5014854;28;831;-53
2023/06/24 05:31:59;;;;;;;;;;;;;;;23.82;100.00;99854.47;5014809;28;1898;-53
2023/06/24 05:34:26;;;;;;;;;;;;;;;24.51;100.00;99843.47;5014876;28;946;-54
2023/06/24 05:36:53;;;;;;;;;;;;;;;24.89;100.00;99838.66;5014767;28;831;-50
2023/06/24 05:39:20;;;;;;;;;;;;;;;24.99;100.00;99848.53;5014651;28;811;-52
2023/06/24 05:41:48;;;;;;;;;;;;;;;25.10;100.00;99850.66;5014636;28;950;-49
2023/06/24 05:44:15;;;;;;;;;;;;;;;25.36;100.00;99847.78;5014553;28;899;-49
2023/06/24 05:46:42;;;;;;;;;;;;;;;25.49;100.00;99838.88;5014685;28;911;-51
2023/06/24 05:49:08;;;;;;;;;;;;;;;25.55;99.73;99836.06;5014468;28;851;-49
2023/06/24 05:51:35;;;;;;;;;;;;;;;25.55;97.82;99838.91;5014399;28;819;-50
2023/06/24 05:54:01;;;;;;;;;;;;;;;25.66;97.05;99834.06;5014309;28;1887;-50
2023/06/24 05:56:28;;;;;;;;;;;;;;;26.07;95.18;99833.78;5014396;28;882;-51
2023/06/24 05:58:55;;;;;;;;;;;;;;;26.69;93.18;99835.97;5014375;28;886;-48
2023/06/24 06:01:22;;;;;;;;;;;;;;;27.28;90.91;99828.50;5014103;28;862;-50
2023/06/24 06:03:48;;;;;;;;;;;;;;;27.72;88.87;99826.84;5014221;28;795;-49
2023/06/24 06:06:15;;;;;;;;;;;;;;;28.06;81.15;99826.72;5014168;28;826;-50
2023/06/24 06:08:41;;;;;;;;;;;;;;;28.43;80.15;99828.31;5014055;28;849;-53
2023/06/24 06:11:08;;;;;;;;;;;;;;;28.93;77.95;99830.03;5014145;28;920;-50
2023/06/24 06:13:36;;;;;;;;;;;;;;;28.99;75.44;99827.91;5013740;28;1891;-49
2023/06/24 06:16:03;;;;;;;;;;;;;;;29.01;68.35;99833.06;5013986;28;811;-51
2023/06/24 06:18:29;;;;;;;;;;;;;;;28.97;66.18;99832.59;5013582;28;862;-50
2023/06/24 06:20:56;;;;;;;;;;;;;;;28.74;65.07;99824.22;5013730;28;811;-51
2023/06/24 06:23:23;;;;;;;;;;;;;;;28.58;64.59;99828.00;5014033;28;807;-54
2023/06/24 06:25:50;;;;;;;;;;;;;;;28.61;64.28;99824.06;5013694;28;870;-54
2023/06/24 06:28:16;;;;;;;;;;;;;;;28.49;62.18;99820.56;5013713;28;913;-52
2023/06/24 06:30:43;;;;;;;;;;;;;;;28.37;63.33;99819.06;5013899;28;889;-54
2023/06/24 06:33:09;;;;;;;;;;;;;;;28.50;60.71;99814.31;5013598;28;1957;-51
2023/06/24 06:35:36;;;;;;;;;;;;;;;29.16;55.08;99822.09;5013817;28;931;-50
2023/06/24 06:38:04;;;;;;;;;;;;;;;30.11;48.99;99814.53;5013616;28;799;-53
2023/06/24 06:40:31;;;;;;;;;;;;;;;31.10;45.58;99816.94;5013472;28;894;-53
2023/06/24 06:42:58;;;;;;;;;;;;;;;32.02;41.89;99814.66;5013494;28;811;-54
2023/06/24 06:45:25;;;;;;;;;;;;;;;33.04;38.77;99815.91;5013502;28;811;-54
2023/06/24 06:47:52;;;;;;;;;;;;;;;33.41;34.04;99817.53;5013460;28;869;-54
2023/06/24 06:50:19;;;;;;;;;;;;;;;33.85;32.38;99811.88;5013169;28;862;-54
2023/06/24 06:52:45;;;;;;;;;;;;;;;34.29;30.77;99819.69;5013253;28;1949;-55
2023/06/24 06:55:12;;;;;;;;;;;;;;;35.16;29.47;99815.84;5013380;28;811;-54
2023/06/24 06:57:38;;;;;;;;;;;;;;;35.76;28.27;99815.50;5013489;28;791;-53
2023/06/24 07:00:05;;;;;;;;;;;;;;;35.92;27.43;99814.13;5013526;28;866;-53
2023/06/24 07:02:31;;;;;;;;;;;;;;;36.08;26.67;99806.19;5013921;28;751;-55
2023/06/24 07:04:59;;;;;;;;;;;;;;;36.13;26.96;99807.34;5013522;28;1092;-56
2023/06/24 07:07:25;;;;;;;;;;;;;;;35.94;27.57;99807.78;5013799;28;772;-56
2023/06/24 07:09:52;;;;;;;;;;;;;;;36.29;27.39;99811.66;5013826;28;780;-55
2023/06/24 07:12:20;;;;;;;;;;;;;;;36.69;27.28;99813.72;5013064;28;1926;-54
2023/06/24 07:14:47;;;;;;;;;;;;;;;36.96;27.32;99813.91;5013139;28;843;-55
2023/06/24 07:17:14;;;;;;;;;;;;;;;37.07;25.78;99811.91;5013113;28;1019;-56
2023/06/24 07:19:40;;;;;;;;;;;;;;;37.21;25.27;99800.84;5012951;28;823;-55
2023/06/24 07:22:07;;;;;;;;;;;;;;;37.36;25.26;99815.88;5013206;28;791;-55
2023/06/24 07:24:34;;;;;;;;;;;;;;;37.45;24.95;99808.66;5013022;28;798;-55
2023/06/24 07:27:01;;;;;;;;;;;;;;;37.72;24.58;99803.00;5012701;28;862;-55
2023/06/24 07:29:28;;;;;;;;;;;;;;;37.76;24.25;99808.34;5012466;28;819;-55
2023/06/24 07:31:56;;;;;;;;;;;;;;;37.67;23.33;99806.91;5012569;28;882;-54
2023/06/24 07:34:22;;;;;;;;;;;;;;;37.76;23.42;99814.88;5012840;28;1894;-53
2023/06/24 07:36:50;;;;;;;;;;;;;;;37.93;22.45;99821.97;5012649;28;917;-54
2023/06/24 07:39:17;;;;;;;;;;;;;;;38.03;21.85;99814.19;5012597;28;906;-55
2023/06/24 07:41:44;;;;;;;;;;;;;;;38.12;21.84;99821.38;5013002;28;795;-54
2023/06/24 07:44:11;;;;;;;;;;;;;;;37.84;21.93;99819.78;5012641;28;886;-55
2023/06/24 07:46:37;;;;;;;;;;;;;;;38.55;22.00;99821.94;5012824;28;822;-53
2023/06/24 07:49:04;;;;;;;;;;;;;;;39.04;21.42;99813.50;5012434;28;870;-54
2023/06/24 07:51:31;;;;;;;;;;;;;;;38.85;21.55;99808.38;5010925;28;1157;-55
2023/06/24 07:53:58;;;;;;;;;;;;;;;38.67;22.23;99814.25;5012128;28;1886;-54
2023/06/24 07:56:24;;;;;;;;;;;;;;;38.38;22.98;99808.31;4994911;28;950;-54
2023/06/24 07:58:51;;;;;;;;;;;;;;;38.70;22.69;99812.28;5012102;28;828;-55
2023/06/24 08:01:18;;;;;;;;;;;;;;;38.82;22.45;99809.59;5012160;28;862;-55
2023/06/24 08:03:44;;;;;;;;;;;;;;;38.80;22.67;99813.84;5012204;28;882;-54
2023/06/24 08:06:11;;;;;;;;;;;;;;;38.67;22.43;99799.81;5012057;28;854;-51
2023/06/24 08:08:37;;;;;;;;;;;;;;;38.79;22.82;99800.78;5011972;28;792;-53
2023/06/24 08:11:04;;;;;;;;;;;;;;;38.39;22.74;99798.31;5011982;28;995;-52
2023/06/24 08:13:30;;;;;;;;;;;;;;;38.21;22.75;99800.47;5011656;28;2004;-53
2023/06/24 08:15:57;;;;;;;;;;;;;;;38.32;22.28;99794.16;5011865;28;807;-55
2023/06/24 08:18:24;;;;;;;;;;;;;;;38.53;22.71;99792.91;5012095;28;886;-55
2023/06/24 08:20:51;;;;;;;;;;;;;;;38.44;21.98;99784.94;5011765;28;823;-55
2023/06/24 08:23:18;;;;;;;;;;;;;;;38.45;22.70;99784.34;5011647;28;1138;-55
2023/06/24 08:25:45;;;;;;;;;;;;;;;38.32;22.66;99785.47;5011847;28;895;-55
2023/06/24 08:28:11;;;;;;;;;;;;;;;38.10;23.24;99784.47;5011754;28;908;-53
2023/06/24 08:30:38;;;;;;;;;;;;;;;38.22;23.08;99790.47;5011804;28;823;-55
2023/06/24 08:33:04;;;;;;;;;;;;;;;38.10;23.39;99780.81;5011515;28;1890;-54
2023/06/24 08:35:30;;;;;;;;;;;;;;;37.99;23.33;99784.97;5011812;28;839;-54
2023/06/24 08:37:57;;;;;;;;;;;;;;;38.05;23.30;99782.63;5011700;28;897;-55
2023/06/24 08:40:23;;;;;;;;;;;;;;;38.05;23.19;99784.75;5011708;28;885;-49
2023/06/24 08:42:50;;;;;;;;;;;;;;;37.68;22.73;99793.25;5015120;28;811;-52
2023/06/24 08:45:17;;;;;;;;;;;;;;;37.91;22.98;99790.09;5015725;28;795;-53
2023/06/24 08:47:45;;;;;;;;;;;;;;;37.97;22.47;99791.34;5015700;28;842;-54
2023/06/24 08:50:13;;;;;;;;;;;;;;;37.57;23.34;99792.41;5015476;28;830;-54
2023/06/24 08:52:42;;;;;;;;;;;;;;;37.58;23.12;99791.06;4997939;28;1890;-54
2023/06/24 08:55:10;;;;;;;;;;;;;;;37.56;22.38;99792.97;5015413;28;841;-55
2023/06/24 08:57:37;;;;;;;;;;;;;;;37.73;22.85;99789.34;5015474;28;815;-54
2023/06/24 09:00:08;;;;;;;;;;;;;;;37.59;22.82;99783.16;5015372;28;870;-56
2023/06/24 09:02:37;;;;;;;;;;;;;;;37.39;22.72;99796.63;5015564;28;835;-54
2023/06/24 09:05:05;;;;;;;;;;;;;;;37.40;22.58;99780.84;4998021;28;927;-54
2023/06/24 09:07:32;;;;;;;;;;;;;;;37.41;22.14;99782.38;5015268;28;874;-53
2023/06/24 09:10:00;;;;;;;;;;;;;;;37.06;22.65;99782.31;5015266;28;823;-55
2023/06/24 09:12:27;;;;;;;;;;;;;;;37.23;21.92;99786.59;4997020;28;1981;-55
2023/06/24 09:14:53;;;;;;;;;;;;;;;37.04;21.92;99787.91;5015045;28;928;-55
2023/06/24 09:17:22;;;;;;;;;;;;;;;36.84;22.50;99780.41;5015149;28;862;-55
2023/06/24 09:19:49;;;;;;;;;;;;;;;36.71;22.60;99793.00;5014948;28;815;-54
2023/06/24 09:22:17;;;;;;;;;;;;;;;36.33;23.03;99777.50;5015007;28;815;-55
2023/06/24 09:24:47;;;;;;;;;;;;;;;36.32;23.02;99775.97;5014975;28;830;-54
2023/06/24 09:27:14;;;;;;;;;;;;;;;36.36;21.99;99776.34;5014846;28;945;-54
2023/06/24 09:29:41;;;;;;;;;;;;;;;36.47;22.00;99777.22;5014925;28;803;-53
2023/06/24 09:32:08;;;;;;;;;;;;;;;36.29;21.87;99780.00;5014811;28;1942;-55
2023/06/24 09:34:35;;;;;;;;;;;;;;;36.37;21.96;99777.09;5014774;28;799;-56
2023/06/24 09:37:02;;;;;;;;;;;;;;;36.57;21.72;99781.75;5014724;28;866;-55
2023/06/24 09:39:34;;;;;;;;;;;;;;;36.30;21.73;99772.16;5014720;28;984;-54
2023/06/24 10:13:36;;;;;;;;;;;;;;;34.51;25.65;99752.25;5050350;23;1878;-55
2023/06/24 10:16:03;;;;;;;;;;;;;;;34.54;25.43;99754.72;5014031;28;830;-55
2023/06/24 10:18:36;;;;;;;;;;;;;;;34.66;25.35;99748.66;5014066;28;826;-56
2023/06/24 10:21:07;;;;;;;;;;;;;;;34.59;25.55;99750.16;5013986;28;826;-55
2023/06/24 10:23:38;;;;;;;;;;;;;;;34.78;25.81;99735.41;5013903;28;794;-54
2023/06/24 10:26:08;;;;;;;;;;;;;;;34.65;26.20;99742.13;5013879;28;819;-56
2023/06/24 10:28:53;;;;;;;;;;;;;;;34.83;26.32;99748.81;5013578;28;973;-56
2023/06/24 10:31:19;;;;;;;;;;;;;;;34.99;25.84;99735.22;4996091;28;914;-55
2023/06/24 10:33:53;;;;;;;;;;;;;;;35.02;26.11;99736.19;5013626;28;1906;-56
2023/06/24 10:36:37;;;;;;;;;;;;;;;35.03;25.66;99747.06;5013671;28;806;-56
2023/06/24 10:39:03;;;;;;;;;;;;;;;35.00;25.70;99739.63;5013604;28;823;-55
2023/06/24 10:41:31;;;;;;;;;;;;;;;35.02;25.45;99736.19;5013765;28;917;-56
2023/06/24 10:43:59;;;;;;;;;;;;;;;35.22;25.20;99732.31;5013481;28;862;-56
2023/06/24 10:46:27;;;;;;;;;;;;;;;35.63;24.77;99729.50;5013340;28;955;-56
2023/06/24 10:48:54;;;;;;;;;;;;;;;35.76;23.94;99727.19;4995661;28;1041;-56
2023/06/24 10:51:21;;;;;;;;;;;;;;;35.57;23.50;99726.84;5013194;28;882;-55
2023/06/24 10:53:47;;;;;;;;;;;;;;;35.49;23.90;99720.38;5013266;28;1894;-56
2023/06/24 10:56:14;;;;;;;;;;;;;;;35.54;23.69;99723.03;5013309;28;806;-56
2023/06/24 10:58:54;;;;;;;;;;;;;;;35.67;23.04;99716.28;5013190;28;854;-56
2023/06/24 11:01:20;;;;;;;;;;;;;;;35.99;22.63;99712.66;5013082;28;867;-57
2023/06/24 11:03:47;;;;;;;;;;;;;;;35.94;22.43;99704.28;5013209;28;858;-56
2023/06/24 11:06:14;;;;;;;;;;;;;;;36.33;21.33;99702.69;5012015;28;843;-57
2023/06/24 11:08:45;;;;;;;;;;;;;;;36.59;21.01;99706.31;5013386;28;870;-56
2023/06/24 11:11:18;;;;;;;;;;;;;;;36.77;20.91;99689.88;5012964;28;996;-57
2023/06/24 11:13:47;;;;;;;;;;;;;;;36.73;21.28;99684.53;5012823;28;1922;-56
2023/06/24 11:16:19;;;;;;;;;;;;;;;36.69;21.28;99683.44;5012958;28;947;-56
2023/06/24 11:18:46;;;;;;;;;;;;;;;36.96;20.87;99675.66;5013579;28;783;-56
2023/06/24 11:21:13;;;;;;;;;;;;;;;37.15;21.78;99675.09;5013167;28;811;-57
2023/06/24 11:23:40;;;;;;;;;;;;;;;37.24;21.41;99667.13;5013128;28;834;-56
2023/06/24 11:26:06;;;;;;;;;;;;;;;37.51;20.57;99661.41;5012799;28;791;-56
2023/06/24 11:28:33;;;;;;;;;;;;;;;37.89;20.75;99668.78;5012687;28;863;-57
2023/06/24 11:31:06;;;;;;;;;;;;;;;37.70;20.88;99655.03;5012735;28;838;-56
2023/06/24 11:33:33;;;;;;;;;;;;;;;37.16;20.37;99658.56;5012473;28;1894;-56
2023/06/24 11:35:59;;;;;;;;;;;;;;;37.27;20.63;99651.53;5012395;28;839;-56
2023/06/24 11:38:31;;;;;;;;;;;;;;;37.54;21.32;99660.22;5012563;28;807;-57
2023/06/24 11:40:58;;;;;;;;;;;;;;;37.59;21.09;99659.97;5012216;28;957;-56
2023/06/24 11:43:25;;;;;;;;;;;;;;;37.68;20.91;99652.72;5012403;28;830;-57
2023/06/24 11:45:52;;;;;;;;;;;;;;;37.55;20.22;99655.97;5012404;28;815;-55
2023/06/24 11:48:20;;;;;;;;;;;;;;;37.70;20.77;99649.25;5012238;28;807;-54
2023/06/24 11:50:53;;;;;;;;;;;;;;;38.26;19.96;99645.72;5012308;28;858;-56
2023/06/24 11:53:29;;;;;;;;;;;;;;;38.44;19.57;99644.28;5012498;28;1932;-56
2023/06/24 11:55:56;;;;;;;;;;;;;;;39.12;19.52;99644.38;5012325;28;874;-57
2023/06/24 11:58:22;;;;;;;;;;;;;;;39.22;18.64;99641.50;5012138;28;842;-56
2023/06/24 12:00:51;;;;;;;;;;;;;;;39.02;18.59;99637.84;5012185;28;842;-57
2023/06/24 12:03:17;;;;;;;;;;;;;;;38.76;18.98;99636.59;5012208;28;935;-57
2023/06/24 12:05:47;;;;;;;;;;;;;;;38.87;18.98;99638.88;5012147;28;849;-56
2023/06/24 12:08:15;;;;;;;;;;;;;;;39.09;18.42;99639.84;5012162;28;932;-56
2023/06/24 12:10:43;;;;;;;;;;;;;;;39.32;18.81;99647.25;5011829;28;848;-56
2023/06/24 12:13:10;;;;;;;;;;;;;;;39.54;18.20;99634.47;5011571;28;1902;-57
2023/06/24 12:15:37;;;;;;;;;;;;;;;39.95;17.74;99633.78;5011805;28;835;-56
2023/06/24 12:18:03;;;;;;;;;;;;;;;40.04;18.26;99643.78;5012071;28;846;-56
2023/06/24 12:20:30;;;;;;;;;;;;;;;40.34;17.94;99637.25;5012007;28;898;-57
2023/06/24 12:22:57;;;;;;;;;;;;;;;40.91;17.33;99643.28;5011893;28;827;-56
2023/06/24 12:25:24;;;;;;;;;;;;;;;40.65;17.32;99641.47;5011979;28;795;-56
2023/06/24 12:27:52;;;;;;;;;;;;;;;40.69;16.89;99636.69;5011835;28;803;-57
2023/06/24 12:30:20;;;;;;;;;;;;;;;40.60;16.98;99634.66;5011784;28;841;-57
2023/06/24 12:32:47;;;;;;;;;;;;;;;40.78;16.98;99635.91;5011660;28;1953;-56
2023/06/24 12:35:14;;;;;;;;;;;;;;;40.55;16.78;99638.66;5011767;28;865;-56
2023/06/24 12:37:40;;;;;;;;;;;;;;;40.06;16.75;99636.00;5011763;28;819;-57
2023/06/24 12:40:07;;;;;;;;;;;;;;;40.40;17.07;99625.34;5011486;28;879;-57
2023/06/24 12:42:34;;;;;;;;;;;;;;;40.57;16.29;99636.66;5011721;28;858;-56
2023/06/24 12:45:01;;;;;;;;;;;;;;;40.60;16.36;99625.97;5011636;28;902;-57
2023/06/24 12:47:27;;;;;;;;;;;;;;;40.80;16.38;99630.25;5011635;28;799;-57
2023/06/24 12:49:54;;;;;;;;;;;;;;;40.30;16.43;99634.06;5011653;28;964;-57
2023/06/24 12:52:21;;;;;;;;;;;;;;;40.26;17.05;99627.22;5011562;28;1964;-57
2023/06/24 12:54:48;;;;;;;;;;;;;;;40.34;16.65;99619.88;5011556;28;846;-56
2023/06/24 12:57:15;;;;;;;;;;;;;;;39.95;16.76;99616.41;5011605;28;836;-56
2023/06/24 12:59:42;;;;;;;;;;;;;;;39.67;17.19;99612.19;5011578;28;819;-56
2023/06/24 13:02:09;;;;;;;;;;;;;;;39.92;17.32;99614.72;5011509;28;923;-57
2023/06/24 13:04:36;;;;;;;;;;;;;;;39.71;17.18;99618.28;5011520;28;791;-57
2023/06/24 13:07:03;;;;;;;;;;;;;;;39.68;17.08;99613.72;5011433;28;862;-56
2023/06/24 13:09:29;;;;;;;;;;;;;;;39.99;16.82;99602.22;5011376;28;955;-57
2023/06/24 13:11:56;;;;;;;;;;;;;;;39.86;17.17;99603.50;5011693;28;877;-57
2023/06/24 13:14:25;;;;;;;;;;;;;;;39.39;17.60;99603.78;4992107;28;1911;-56
2023/06/24 13:16:51;;;;;;;;;;;;;;;39.47;18.03;99608.63;4991730;28;926;-56
2023/06/24 13:19:17;;;;;;;;;;;;;;;39.59;17.95;99598.69;4991733;28;946;-57
2023/06/24 13:21:44;;;;;;;;;;;;;;;39.16;18.55;99598.47;4991881;28;870;-57
2023/06/24 13:24:12;;;;;;;;;;;;;;;38.56;19.66;99587.50;4991710;28;850;-57
2023/06/24 13:26:39;;;;;;;;;;;;;;;38.25;20.51;99600.94;4991688;28;862;-56
2023/06/24 13:29:07;;;;;;;;;;;;;;;38.36;20.00;99597.47;4993698;28;979;-56
2023/06/24 13:31:34;;;;;;;;;;;;;;;38.13;20.35;99597.84;4995229;28;899;-56
2023/06/24 13:34:00;;;;;;;;;;;;;;;38.11;19.84;99597.69;4995172;28;1867;-56